createdAt,value
2023-05-18T03:01:23.012Z,5.80
2023-05-18T03:04:09.961Z,5.30
2023-05-18T03:10:16.958Z,6.05
2023-05-18T03:13:03.991Z,6.00
2023-05-18T03:15:45.647Z,7.57
2023-05-18T03:18:32.942Z,5.93
2023-05-18T03:21:13.881Z,5.97
2023-05-18T03:24:00.944Z,6.43
2023-05-18T03:26:44.622Z,5.03
2023-05-18T03:29:31.952Z,6.63
2023-05-18T03:32:18.907Z,6.60
2023-05-18T03:35:07.936Z,6.95
2023-05-18T03:37:55.870Z,7.07
2023-05-18T03:40:36.541Z,5.95
2023-05-18T03:43:23.960Z,5.90
2023-05-18T03:46:04.414Z,5.43
2023-05-18T03:48:50.951Z,6.28
2023-05-18T03:51:44.816Z,6.37
2023-05-18T03:54:31.927Z,5.90
2023-05-18T03:57:19.873Z,7.38
2023-05-18T04:00:08.878Z,5.75
2023-05-18T04:02:58.945Z,6.18
2023-05-18T04:05:40.038Z,5.78
2023-05-18T04:08:26.841Z,5.10
2023-05-18T04:11:13.880Z,5.55
2023-05-18T04:14:00.921Z,5.75
2023-05-18T04:16:48.031Z,5.63
2023-05-18T04:19:28.386Z,6.13
2023-05-18T04:22:14.888Z,5.30
2023-05-18T04:24:57.431Z,5.78
2023-05-18T04:27:43.862Z,5.95
2023-05-18T04:30:29.736Z,5.10
2023-05-18T04:33:16.812Z,6.40
2023-05-18T04:35:59.034Z,5.60
2023-05-18T04:38:46.856Z,5.32
2023-05-18T04:41:27.235Z,5.97
2023-05-18T04:44:13.808Z,5.10
2023-05-18T04:47:01.799Z,5.65
2023-05-18T04:49:43.826Z,5.88
2023-05-18T04:52:31.840Z,5.60
2023-05-18T04:55:11.905Z,6.40
2023-05-18T04:58:02.788Z,5.80
2023-05-18T05:00:49.804Z,6.55
2023-05-18T05:03:30.353Z,6.43
2023-05-18T05:06:17.782Z,5.72
2023-05-18T05:09:11.754Z,5.30
2023-05-18T05:11:58.790Z,5.78
2023-05-18T05:14:38.933Z,6.97
2023-05-18T05:17:25.808Z,6.75
2023-05-18T05:20:12.744Z,6.68
2023-05-18T05:22:59.815Z,7.00
2023-05-18T05:25:43.869Z,6.90
2023-05-18T05:28:30.748Z,6.45
2023-05-18T05:31:10.945Z,6.82
2023-05-18T05:33:58.796Z,7.93
2023-05-18T05:36:39.473Z,7.45
2023-05-18T05:39:26.760Z,7.28
2023-05-18T05:42:13.756Z,6.50
2023-05-18T05:44:54.168Z,6.50
2023-05-18T05:47:41.803Z,6.18
2023-05-18T05:50:24.116Z,6.70
2023-05-18T05:53:13.693Z,6.72
2023-05-18T05:55:55.358Z,6.85
2023-05-18T05:58:44.745Z,6.10
2023-05-18T06:01:31.721Z,6.13
2023-05-18T06:04:12.814Z,6.30
2023-05-18T06:06:59.732Z,6.10
2023-05-18T06:09:53.712Z,7.13
2023-05-18T06:12:34.131Z,6.20
2023-05-18T06:15:21.737Z,8.95
2023-05-18T06:18:02.253Z,7.18
2023-05-18T06:20:48.742Z,6.95
2023-05-18T06:23:35.668Z,7.28
2023-05-18T06:26:29.808Z,6.90
2023-05-18T06:29:27.684Z,6.90
2023-05-18T06:32:21.763Z,6.68
2023-05-18T06:35:04.191Z,7.20
2023-05-18T06:37:50.671Z,6.72
2023-05-18T06:40:37.715Z,7.22
2023-05-18T06:43:17.810Z,7.00
2023-05-18T06:46:32.750Z,8.35
2023-05-18T06:49:23.782Z,9.60
2023-05-18T06:52:10.690Z,8.88
2023-05-18T06:54:51.831Z,9.55
2023-05-18T06:57:38.668Z,8.80
2023-05-18T07:00:25.642Z,9.13
2023-05-18T07:03:06.238Z,9.68
2023-05-18T07:05:52.633Z,7.63
2023-05-18T07:08:40.648Z,8.57
2023-05-18T07:11:29.667Z,8.77
2023-05-18T07:14:10.051Z,8.10
2023-05-18T07:16:56.626Z,8.40
2023-05-18T07:19:43.807Z,7.90
2023-05-18T07:22:23.655Z,7.85
2023-05-18T07:25:10.606Z,8.75
2023-05-18T07:27:54.731Z,8.00
2023-05-18T07:30:41.615Z,8.23
